Ami — C6AD2 — position and weather

sailwx.info

Track history (hours):
 
Tides and Currents Weather Stations Pressure Air Temp Water Temp Dewpoint Dewpoint Depression Visibility Wind Speed Wind Dir Waves Ship Positions

Ami

Last reported at 2018-Jul-23 01:59 UTC. Time now 2018-Jul-23 02:10 UTC.
Position N 52°33' E 004°11'.

Length 183 m; draft 8 m.

Type: Tanker. MMSI: 311076200.

Date/timePositionNaut miles runAvg speedWind from/ knotsBaromVisibWave heightAir tempDewpointWater temp
2018-Jul-23 01:59N 52°33' E 004°11'0 0.0
2018-Jul-23 01:29N 52°33' E 004°11'0 0.0
2018-Jul-23 00:59N 52°33' E 004°11'0 0.0
2018-Jul-23 00:29N 52°33' E 004°11'0 0.0
2018-Jul-22 23:59N 52°33' E 004°11'0 0.0
2018-Jul-22 23:29N 52°33' E 004°11'0 0.0
2018-Jul-22 22:59N 52°33' E 004°11'0 0.0
2018-Jul-22 22:29N 52°33' E 004°11'0 0.0
2018-Jul-22 21:59N 52°33' E 004°11'0 0.1
2018-Jul-22 21:29N 52°33' E 004°11'0 0.9
2018-Jul-22 21:00N 52°33' E 004°11'4 8.4
2018-Jul-22 20:30N 52°31' E 004°17'713.2
2018-Jul-22 20:00N 52°29' E 004°28'510.0
2018-Jul-22 19:30N 52°28' E 004°36'0 0.7
2018-Jul-22 19:00N 52°28' E 004°37'1 2.0
2018-Jul-22 18:30N 52°28' E 004°38'3 6.6
2018-Jul-22 18:00N 52°26' E 004°43'2 3.2
2018-Jul-22 17:25N 52°25' E 004°45'0 0.0
2018-Jul-22 16:52N 52°25' E 004°45'0 0.0
2018-Jul-22 16:16N 52°25' E 004°45'0 0.0
2018-Jul-22 15:58N 52°25' E 004°45'0 0.0
2018-Jul-22 14:52N 52°25' E 004°45'0 0.0
2018-Jul-22 14:28N 52°25' E 004°45'0 0.0
2018-Jul-22 13:58N 52°25' E 004°45'0 0.0
2018-Jul-22 13:22N 52°25' E 004°45'0 0.0
2018-Jul-22 12:58N 52°25' E 004°45'0 0.0
2018-Jul-22 12:28N 52°25' E 004°45'0 0.0
2018-Jul-22 11:34N 52°25' E 004°45'0 0.0
2018-Jul-22 11:28N 52°25' E 004°45'0 0.0
2018-Jul-22 10:58N 52°25' E 004°45'0 0.0
2018-Jul-22 10:28N 52°25' E 004°45'0 0.0
2018-Jul-22 09:58N 52°25' E 004°45'0 0.0
2018-Jul-22 09:28N 52°25' E 004°45'0 0.0
2018-Jul-22 08:58N 52°25' E 004°45'0 0.0
2018-Jul-22 08:25N 52°25' E 004°45'0 0.0
2018-Jul-22 07:58N 52°25' E 004°45'0 0.0
2018-Jul-22 07:25N 52°25' E 004°45'0 0.0
2018-Jul-22 06:58N 52°25' E 004°45'0 0.0
2018-Jul-22 06:28N 52°25' E 004°45'0 0.0
2018-Jul-22 05:52N 52°25' E 004°45'0 0.0
2018-Jul-22 05:28N 52°25' E 004°45'0 0.0
2018-Jul-22 04:52N 52°25' E 004°45'0 0.0
2018-Jul-22 04:28N 52°25' E 004°45'0 0.0
2018-Jul-22 03:58N 52°25' E 004°45'0 0.0
2018-Jul-22 03:28N 52°25' E 004°45'0 0.0
2018-Jul-22 02:58N 52°25' E 004°45'0 0.0
2018-Jul-22 02:25N 52°25' E 004°45'0 0.0
2018-Jul-22 01:52N 52°25' E 004°45'0 0.0
2018-Jul-22 01:16N 52°25' E 004°45'0 0.0
2018-Jul-22 00:58N 52°25' E 004°45'0 0.0
2018-Jul-22 00:28N 52°25' E 004°45'0 0.0
2018-Jul-21 23:58N 52°25' E 004°45'0 0.0
2018-Jul-21 23:28N 52°25' E 004°45'0 0.0
2018-Jul-21 22:55N 52°25' E 004°45'0 0.0
2018-Jul-21 22:16N 52°25' E 004°45'0 0.0
2018-Jul-21 21:52N 52°25' E 004°45'0 0.0
2018-Jul-21 21:22N 52°25' E 004°45'0 0.0
2018-Jul-21 20:58N 52°25' E 004°45'0 0.0
2018-Jul-21 20:22N 52°25' E 004°45'0 0.0
2018-Jul-21 19:58N 52°25' E 004°45'0 0.0
2018-Jul-21 19:28N 52°25' E 004°45'0 0.0
2018-Jul-21 18:58N 52°25' E 004°45'0 0.0
2018-Jul-21 18:22N 52°25' E 004°45'0 0.0
2018-Jul-21 17:52N 52°25' E 004°45'0 0.0
2018-Jul-21 17:28N 52°25' E 004°45'0 0.0
2018-Jul-21 16:58N 52°25' E 004°45'0 0.0
2018-Jul-21 16:22N 52°25' E 004°45'0 0.0
2018-Jul-21 15:52N 52°25' E 004°45'0 0.0
2018-Jul-21 15:28N 52°25' E 004°45'0 0.0
2018-Jul-21 14:58N 52°25' E 004°45'0 0.0
2018-Jul-21 14:28N 52°25' E 004°45'0 0.0
2018-Jul-21 13:28N 52°25' E 004°45'0 0.0
2018-Jul-21 12:55N 52°25' E 004°45'0 0.0
2018-Jul-21 12:22N 52°25' E 004°45'0 0.0
2018-Jul-21 11:55N 52°25' E 004°45'0 0.0
2018-Jul-21 11:28N 52°25' E 004°45'0 0.0
2018-Jul-21 11:00N 52°25' E 004°45'0 0.4
2018-Jul-21 10:30N 52°25' E 004°45'1 2.0
2018-Jul-21 10:00N 52°26' E 004°44'3 6.1
2018-Jul-21 09:30N 52°28' E 004°40'2 4.5
2018-Jul-21 09:00N 52°28' E 004°36'0 0.2
2018-Jul-21 08:30N 52°28' E 004°36'2 4.8
2018-Jul-21 08:00N 52°28' E 004°32'5 9.7
2018-Jul-21 07:30N 52°29' E 004°24'5 9.1
2018-Jul-21 07:00N 52°29' E 004°17'5 9.4
2018-Jul-21 06:30N 52°29' E 004°09'3 6.6
2018-Jul-21 06:00N 52°27' E 004°05'0 0.0
2018-Jul-21 05:24N 52°27' E 004°05'0 0.0
2018-Jul-21 04:54N 52°27' E 004°05'0 0.0
2018-Jul-21 04:30N 52°27' E 004°05'0 0.0
2018-Jul-21 04:00N 52°27' E 004°05'0 0.0
2018-Jul-21 03:27N 52°27' E 004°05'0 0.0
2018-Jul-21 03:00N 52°27' E 004°05'0 0.0
2018-Jul-21 02:27N 52°27' E 004°05'0 0.1
2018-Jul-21 01:54N 52°27' E 004°05'0 0.1
2018-Jul-21 01:21N 52°27' E 004°05'0 0.2
2018-Jul-21 00:57N 52°27' E 004°05'0 0.1
2018-Jul-21 00:27N 52°27' E 004°05'0 0.1
2018-Jul-21 00:00N 52°27' E 004°05'0 0.1
2018-Jul-20 23:30N 52°27' E 004°05'0 0.0
2018-Jul-20 23:00N 52°27' E 004°05'0 0.0
2018-Jul-20 22:30N 52°27' E 004°05'0 0.1
2018-Jul-20 22:00N 52°27' E 004°05'0 0.0
2018-Jul-20 21:30N 52°27' E 004°05'0 0.0
2018-Jul-20 21:00N 52°27' E 004°05'0 0.3
2018-Jul-20 20:30N 52°27' E 004°05'3 5.4
2018-Jul-20 20:00N 52°28' E 004°00'5 9.4
2018-Jul-20 19:30N 52°27' E 003°53'612.0
2018-Jul-20 19:00N 52°25' E 003°43'612.0
2018-Jul-20 18:30N 52°23' E 003°34'611.9
2018-Jul-20 18:00N 52°19' E 003°27'611.6
2018-Jul-20 17:30N 52°15' E 003°20'611.6
2018-Jul-20 17:00N 52°11' E 003°14'611.5
2018-Jul-20 16:30N 52°06' E 003°09'510.6
2018-Jul-20 16:00N 52°02' E 003°03'511.0
2018-Jul-20 15:30N 51°59' E 002°56'510.8
2018-Jul-20 15:00N 51°55' E 002°50'510.6
2018-Jul-20 14:30N 51°51' E 002°44'510.5
2018-Jul-20 14:00N 51°47' E 002°38'510.4
2018-Jul-20 13:30N 51°43' E 002°33'510.5
2018-Jul-20 13:00N 51°39' E 002°28'510.6
2018-Jul-20 12:30N 51°35' E 002°22'510.9
2018-Jul-20 12:00N 51°31' E 002°16'611.2
2018-Jul-20 11:30N 51°26' E 002°11'611.2
2018-Jul-20 11:00N 51°21' E 002°08'612.2
2018-Jul-20 10:30N 51°15' E 002°06'611.9
2018-Jul-20 10:00N 51°11' E 001°58'612.2
2018-Jul-20 09:30N 51°08' E 001°50'612.3
2018-Jul-20 09:00N 51°05' E 001°42'612.5
2018-Jul-20 08:30N 51°01' E 001°34'612.9
2018-Jul-20 08:00N 50°56' E 001°27'713.3
2018-Jul-20 07:30N 50°49' E 001°26'713.4
2018-Jul-20 07:00N 50°43' E 001°22'612.7
2018-Jul-20 06:30N 50°38' E 001°17'712.7
2018-Jul-20 05:59N 50°34' E 001°08'612.6
2018-Jul-20 05:30N 50°31' E 001°00'612.5
2018-Jul-20 05:00N 50°28' E 000°51'2112.8
2018-Jul-20 03:23N 50°22' E 000°20'613.4
2018-Jul-20 02:57N 50°20' E 000°11'713.6
2018-Jul-20 02:28N 50°18' E 000°02'713.9
2018-Jul-20 01:57N 50°17' W 000°09'2214.0
2018-Jul-20 00:21N 50°11' W 000°43'513.9
2018-Jul-20 00:00N 50°10' W 000°51'1313.5
2018-Jul-19 23:01N 50°06' W 001°11'1013.2
2018-Jul-19 22:15N 50°03' W 001°26'412.6
2018-Jul-19 21:56N 50°02' W 001°32'1511.5
2018-Jul-19 20:36N 49°59' W 001°55'210.5
2018-Jul-19 20:25N 49°58' W 001°58'510.4
2018-Jul-19 19:56N 49°57' W 002°05'510.0
2018-Jul-19 19:27N 49°55' W 002°12'6 9.9
2018-Jul-19 18:52N 49°54' W 002°21'410.1
2018-Jul-19 18:30N 49°54' W 002°27'510.2
2018-Jul-19 18:00N 49°52' W 002°35'510.9
2018-Jul-19 17:30N 49°51' W 002°43'711.3
2018-Jul-19 16:54N 49°49' W 002°53'511.8
2018-Jul-19 16:28N 49°47' W 002°60'612.1
2018-Jul-19 16:00N 49°44' W 003°07'612.3
2018-Jul-19 15:30N 49°41' W 003°15'612.3
2018-Jul-19 15:00N 49°38' W 003°24'712.1
2018-Jul-19 14:25N 49°35' W 003°34'7312.6
2018-Jul-19 08:36N 48°57' W 005°10'313.0
2018-Jul-19 08:22N 48°56' W 005°14'713.1
2018-Jul-19 07:48N 48°52' W 005°24'413.3
2018-Jul-19 07:29N 48°50' W 005°30'612.7
2018-Jul-19 06:58N 48°46' W 005°38'4212.6
2018-Jul-19 03:38N 48°09' W 006°07'55511.4
2018-Jul-17 03:00N 39°19' W 009°57'612.1
2018-Jul-17 02:29N 39°13' W 009°56'612.1
2018-Jul-17 02:00N 39°07' W 009°56'611.7
2018-Jul-17 01:30N 39°01' W 009°57'612.1
2018-Jul-17 01:00N 38°55' W 009°58'612.4
2018-Jul-17 00:30N 38°49' W 009°57'1212.2
2018-Jul-16 23:30N 38°37' W 009°55'612.3
2018-Jul-16 23:00N 38°31' W 009°53'712.4
2018-Jul-16 22:27N 38°24' W 009°52'612.3
2018-Jul-16 22:00N 38°19' W 009°50'612.3
2018-Jul-16 21:30N 38°13' W 009°49'612.0
2018-Jul-16 21:00N 38°07' W 009°47'611.7
2018-Jul-16 20:28N 38°01' W 009°45'511.5
2018-Jul-16 20:00N 37°56' W 009°43'611.2
2018-Jul-16 19:30N 37°50' W 009°41'511.0
2018-Jul-16 19:00N 37°45' W 009°40'611.2
2018-Jul-16 18:30N 37°39' W 009°38'611.6
2018-Jul-16 18:00N 37°34' W 009°36'611.8
2018-Jul-16 17:30N 37°28' W 009°35'611.7
2018-Jul-16 17:00N 37°22' W 009°33'611.8
2018-Jul-16 16:30N 37°17' W 009°32'611.8
2018-Jul-16 16:00N 37°11' W 009°30'612.2
2018-Jul-16 15:30N 37°05' W 009°28'712.4
2018-Jul-16 14:57N 36°58' W 009°26'19412.1
2018-Jul-15 22:53N 35°58' W 005°37'410.0
2018-Jul-15 22:30N 35°58' W 005°32'4 8.9
2018-Jul-15 22:00N 35°60' W 005°27'4 7.5
2018-Jul-15 21:30N 36°01' W 005°23'3 6.8
2018-Jul-15 21:00N 36°01' W 005°19'4 7.4
2018-Jul-15 20:30N 36°02' W 005°14'4 8.6
2018-Jul-15 20:00N 36°05' W 005°10'35811.1
2018-Jul-14 11:55N 37°41' E 002°01'1512.8
2018-Jul-14 10:43N 37°41' E 002°20'15912.1
2018-Jul-13 21:34N 37°40' E 005°41'112.4
2018-Jul-13 21:28N 37°40' E 005°43'712.4
2018-Jul-13 20:55N 37°40' E 005°51'512.5
2018-Jul-13 20:30N 37°40' E 005°58'712.8
2018-Jul-13 19:57N 37°40' E 006°07'612.8
2018-Jul-13 19:30N 37°40' E 006°14'712.7
2018-Jul-13 18:59N 37°40' E 006°22'612.7
2018-Jul-13 18:30N 37°40' E 006°30'612.8
2018-Jul-13 18:00N 37°40' E 006°38'713.0
2018-Jul-13 17:30N 37°40' E 006°46'9312.3
2018-Jul-13 09:57N 37°39' E 008°44'8512.3
2018-Jul-13 03:02N 37°36' E 010°31'212.5
2018-Jul-13 02:54N 37°35' E 010°33'  
Track history (hours):
 
Tides and Currents Weather Stations Pressure Air Temp Water Temp Dewpoint Dewpoint Depression Visibility Wind Speed Wind Dir Waves Ship Positions

Ami

Last reported at 2018-Jul-23 01:59 UTC. Time now 2018-Jul-23 02:10 UTC.
Position N 52°33' E 004°11'.

Length 183 m; draft 8 m.

Type: Tanker. MMSI: 311076200.

Date/timePositionNaut miles runAvg speedWind from/ knotsBaromVisibWave heightAir tempDewpointWater temp
2018-Jul-23 01:59N 52°33' E 004°11'0 0.0
2018-Jul-23 01:29N 52°33' E 004°11'0 0.0
2018-Jul-23 00:59N 52°33' E 004°11'0 0.0
2018-Jul-23 00:29N 52°33' E 004°11'0 0.0
2018-Jul-22 23:59N 52°33' E 004°11'0 0.0
2018-Jul-22 23:29N 52°33' E 004°11'0 0.0
2018-Jul-22 22:59N 52°33' E 004°11'0 0.0
2018-Jul-22 22:29N 52°33' E 004°11'0 0.0
2018-Jul-22 21:59N 52°33' E 004°11'0 0.1
2018-Jul-22 21:29N 52°33' E 004°11'0 0.9
2018-Jul-22 21:00N 52°33' E 004°11'4 8.4
2018-Jul-22 20:30N 52°31' E 004°17'713.2
2018-Jul-22 20:00N 52°29' E 004°28'510.0
2018-Jul-22 19:30N 52°28' E 004°36'0 0.7
2018-Jul-22 19:00N 52°28' E 004°37'1 2.0
2018-Jul-22 18:30N 52°28' E 004°38'3 6.6
2018-Jul-22 18:00N 52°26' E 004°43'2 3.2
2018-Jul-22 17:25N 52°25' E 004°45'0 0.0
2018-Jul-22 16:52N 52°25' E 004°45'0 0.0
2018-Jul-22 16:16N 52°25' E 004°45'0 0.0
2018-Jul-22 15:58N 52°25' E 004°45'0 0.0
2018-Jul-22 14:52N 52°25' E 004°45'0 0.0
2018-Jul-22 14:28N 52°25' E 004°45'0 0.0
2018-Jul-22 13:58N 52°25' E 004°45'0 0.0
2018-Jul-22 13:22N 52°25' E 004°45'0 0.0
2018-Jul-22 12:58N 52°25' E 004°45'0 0.0
2018-Jul-22 12:28N 52°25' E 004°45'0 0.0
2018-Jul-22 11:34N 52°25' E 004°45'0 0.0
2018-Jul-22 11:28N 52°25' E 004°45'0 0.0
2018-Jul-22 10:58N 52°25' E 004°45'0 0.0
2018-Jul-22 10:28N 52°25' E 004°45'0 0.0
2018-Jul-22 09:58N 52°25' E 004°45'0 0.0
2018-Jul-22 09:28N 52°25' E 004°45'0 0.0
2018-Jul-22 08:58N 52°25' E 004°45'0 0.0
2018-Jul-22 08:25N 52°25' E 004°45'0 0.0
2018-Jul-22 07:58N 52°25' E 004°45'0 0.0
2018-Jul-22 07:25N 52°25' E 004°45'0 0.0
2018-Jul-22 06:58N 52°25' E 004°45'0 0.0
2018-Jul-22 06:28N 52°25' E 004°45'0 0.0
2018-Jul-22 05:52N 52°25' E 004°45'0 0.0
2018-Jul-22 05:28N 52°25' E 004°45'0 0.0
2018-Jul-22 04:52N 52°25' E 004°45'0 0.0
2018-Jul-22 04:28N 52°25' E 004°45'0 0.0
2018-Jul-22 03:58N 52°25' E 004°45'0 0.0
2018-Jul-22 03:28N 52°25' E 004°45'0 0.0
2018-Jul-22 02:58N 52°25' E 004°45'0 0.0
2018-Jul-22 02:25N 52°25' E 004°45'0 0.0
2018-Jul-22 01:52N 52°25' E 004°45'0 0.0
2018-Jul-22 01:16N 52°25' E 004°45'0 0.0
2018-Jul-22 00:58N 52°25' E 004°45'0 0.0
2018-Jul-22 00:28N 52°25' E 004°45'0 0.0
2018-Jul-21 23:58N 52°25' E 004°45'0 0.0
2018-Jul-21 23:28N 52°25' E 004°45'0 0.0
2018-Jul-21 22:55N 52°25' E 004°45'0 0.0
2018-Jul-21 22:16N 52°25' E 004°45'0 0.0
2018-Jul-21 21:52N 52°25' E 004°45'0 0.0
2018-Jul-21 21:22N 52°25' E 004°45'0 0.0
2018-Jul-21 20:58N 52°25' E 004°45'0 0.0
2018-Jul-21 20:22N 52°25' E 004°45'0 0.0
2018-Jul-21 19:58N 52°25' E 004°45'0 0.0
2018-Jul-21 19:28N 52°25' E 004°45'0 0.0
2018-Jul-21 18:58N 52°25' E 004°45'0 0.0
2018-Jul-21 18:22N 52°25' E 004°45'0 0.0
2018-Jul-21 17:52N 52°25' E 004°45'0 0.0
2018-Jul-21 17:28N 52°25' E 004°45'0 0.0
2018-Jul-21 16:58N 52°25' E 004°45'0 0.0
2018-Jul-21 16:22N 52°25' E 004°45'0 0.0
2018-Jul-21 15:52N 52°25' E 004°45'0 0.0
2018-Jul-21 15:28N 52°25' E 004°45'0 0.0
2018-Jul-21 14:58N 52°25' E 004°45'0 0.0
2018-Jul-21 14:28N 52°25' E 004°45'0 0.0
2018-Jul-21 13:28N 52°25' E 004°45'0 0.0
2018-Jul-21 12:55N 52°25' E 004°45'0 0.0
2018-Jul-21 12:22N 52°25' E 004°45'0 0.0
2018-Jul-21 11:55N 52°25' E 004°45'0 0.0
2018-Jul-21 11:28N 52°25' E 004°45'0 0.0
2018-Jul-21 11:00N 52°25' E 004°45'0 0.4
2018-Jul-21 10:30N 52°25' E 004°45'1 2.0
2018-Jul-21 10:00N 52°26' E 004°44'3 6.1
2018-Jul-21 09:30N 52°28' E 004°40'2 4.5
2018-Jul-21 09:00N 52°28' E 004°36'0 0.2
2018-Jul-21 08:30N 52°28' E 004°36'2 4.8
2018-Jul-21 08:00N 52°28' E 004°32'5 9.7
2018-Jul-21 07:30N 52°29' E 004°24'5 9.1
2018-Jul-21 07:00N 52°29' E 004°17'5 9.4
2018-Jul-21 06:30N 52°29' E 004°09'3 6.6
2018-Jul-21 06:00N 52°27' E 004°05'0 0.0
2018-Jul-21 05:24N 52°27' E 004°05'0 0.0
2018-Jul-21 04:54N 52°27' E 004°05'0 0.0
2018-Jul-21 04:30N 52°27' E 004°05'0 0.0
2018-Jul-21 04:00N 52°27' E 004°05'0 0.0
2018-Jul-21 03:27N 52°27' E 004°05'0 0.0
2018-Jul-21 03:00N 52°27' E 004°05'0 0.0
2018-Jul-21 02:27N 52°27' E 004°05'0 0.1
2018-Jul-21 01:54N 52°27' E 004°05'0 0.1
2018-Jul-21 01:21N 52°27' E 004°05'0 0.2
2018-Jul-21 00:57N 52°27' E 004°05'0 0.1
2018-Jul-21 00:27N 52°27' E 004°05'0 0.1
2018-Jul-21 00:00N 52°27' E 004°05'0 0.1
2018-Jul-20 23:30N 52°27' E 004°05'0 0.0
2018-Jul-20 23:00N 52°27' E 004°05'0 0.0
2018-Jul-20 22:30N 52°27' E 004°05'0 0.1
2018-Jul-20 22:00N 52°27' E 004°05'0 0.0
2018-Jul-20 21:30N 52°27' E 004°05'0 0.0
2018-Jul-20 21:00N 52°27' E 004°05'0 0.3
2018-Jul-20 20:30N 52°27' E 004°05'3 5.4
2018-Jul-20 20:00N 52°28' E 004°00'5 9.4
2018-Jul-20 19:30N 52°27' E 003°53'612.0
2018-Jul-20 19:00N 52°25' E 003°43'612.0
2018-Jul-20 18:30N 52°23' E 003°34'611.9
2018-Jul-20 18:00N 52°19' E 003°27'611.6
2018-Jul-20 17:30N 52°15' E 003°20'611.6
2018-Jul-20 17:00N 52°11' E 003°14'611.5
2018-Jul-20 16:30N 52°06' E 003°09'510.6
2018-Jul-20 16:00N 52°02' E 003°03'511.0
2018-Jul-20 15:30N 51°59' E 002°56'510.8
2018-Jul-20 15:00N 51°55' E 002°50'510.6
2018-Jul-20 14:30N 51°51' E 002°44'510.5
2018-Jul-20 14:00N 51°47' E 002°38'510.4
2018-Jul-20 13:30N 51°43' E 002°33'510.5
2018-Jul-20 13:00N 51°39' E 002°28'510.6
2018-Jul-20 12:30N 51°35' E 002°22'510.9
2018-Jul-20 12:00N 51°31' E 002°16'611.2
2018-Jul-20 11:30N 51°26' E 002°11'611.2
2018-Jul-20 11:00N 51°21' E 002°08'612.2
2018-Jul-20 10:30N 51°15' E 002°06'611.9
2018-Jul-20 10:00N 51°11' E 001°58'612.2
2018-Jul-20 09:30N 51°08' E 001°50'612.3
2018-Jul-20 09:00N 51°05' E 001°42'612.5
2018-Jul-20 08:30N 51°01' E 001°34'612.9
2018-Jul-20 08:00N 50°56' E 001°27'713.3
2018-Jul-20 07:30N 50°49' E 001°26'713.4
2018-Jul-20 07:00N 50°43' E 001°22'612.7
2018-Jul-20 06:30N 50°38' E 001°17'712.7
2018-Jul-20 05:59N 50°34' E 001°08'612.6
2018-Jul-20 05:30N 50°31' E 001°00'612.5
2018-Jul-20 05:00N 50°28' E 000°51'2112.8
2018-Jul-20 03:23N 50°22' E 000°20'613.4
2018-Jul-20 02:57N 50°20' E 000°11'713.6
2018-Jul-20 02:28N 50°18' E 000°02'713.9
2018-Jul-20 01:57N 50°17' W 000°09'2214.0
2018-Jul-20 00:21N 50°11' W 000°43'513.9
2018-Jul-20 00:00N 50°10' W 000°51'1313.5
2018-Jul-19 23:01N 50°06' W 001°11'1013.2
2018-Jul-19 22:15N 50°03' W 001°26'412.6
2018-Jul-19 21:56N 50°02' W 001°32'1511.5
2018-Jul-19 20:36N 49°59' W 001°55'210.5
2018-Jul-19 20:25N 49°58' W 001°58'510.4
2018-Jul-19 19:56N 49°57' W 002°05'510.0
2018-Jul-19 19:27N 49°55' W 002°12'6 9.9
2018-Jul-19 18:52N 49°54' W 002°21'410.1
2018-Jul-19 18:30N 49°54' W 002°27'510.2
2018-Jul-19 18:00N 49°52' W 002°35'510.9
2018-Jul-19 17:30N 49°51' W 002°43'711.3
2018-Jul-19 16:54N 49°49' W 002°53'511.8
2018-Jul-19 16:28N 49°47' W 002°60'612.1
2018-Jul-19 16:00N 49°44' W 003°07'612.3
2018-Jul-19 15:30N 49°41' W 003°15'612.3
2018-Jul-19 15:00N 49°38' W 003°24'712.1
2018-Jul-19 14:25N 49°35' W 003°34'7312.6
2018-Jul-19 08:36N 48°57' W 005°10'313.0
2018-Jul-19 08:22N 48°56' W 005°14'713.1
2018-Jul-19 07:48N 48°52' W 005°24'413.3
2018-Jul-19 07:29N 48°50' W 005°30'612.7
2018-Jul-19 06:58N 48°46' W 005°38'4212.6
2018-Jul-19 03:38N 48°09' W 006°07'55511.4
2018-Jul-17 03:00N 39°19' W 009°57'612.1
2018-Jul-17 02:29N 39°13' W 009°56'612.1
2018-Jul-17 02:00N 39°07' W 009°56'611.7
2018-Jul-17 01:30N 39°01' W 009°57'612.1
2018-Jul-17 01:00N 38°55' W 009°58'612.4
2018-Jul-17 00:30N 38°49' W 009°57'1212.2
2018-Jul-16 23:30N 38°37' W 009°55'612.3
2018-Jul-16 23:00N 38°31' W 009°53'712.4
2018-Jul-16 22:27N 38°24' W 009°52'612.3
2018-Jul-16 22:00N 38°19' W 009°50'612.3
2018-Jul-16 21:30N 38°13' W 009°49'612.0
2018-Jul-16 21:00N 38°07' W 009°47'611.7
2018-Jul-16 20:28N 38°01' W 009°45'511.5
2018-Jul-16 20:00N 37°56' W 009°43'611.2
2018-Jul-16 19:30N 37°50' W 009°41'511.0
2018-Jul-16 19:00N 37°45' W 009°40'611.2
2018-Jul-16 18:30N 37°39' W 009°38'611.6
2018-Jul-16 18:00N 37°34' W 009°36'611.8
2018-Jul-16 17:30N 37°28' W 009°35'611.7
2018-Jul-16 17:00N 37°22' W 009°33'611.8
2018-Jul-16 16:30N 37°17' W 009°32'611.8
2018-Jul-16 16:00N 37°11' W 009°30'612.2
2018-Jul-16 15:30N 37°05' W 009°28'712.4
2018-Jul-16 14:57N 36°58' W 009°26'19412.1
2018-Jul-15 22:53N 35°58' W 005°37'410.0
2018-Jul-15 22:30N 35°58' W 005°32'4 8.9
2018-Jul-15 22:00N 35°60' W 005°27'4 7.5
2018-Jul-15 21:30N 36°01' W 005°23'3 6.8
2018-Jul-15 21:00N 36°01' W 005°19'4 7.4
2018-Jul-15 20:30N 36°02' W 005°14'4 8.6
2018-Jul-15 20:00N 36°05' W 005°10'35811.1
2018-Jul-14 11:55N 37°41' E 002°01'1512.8
2018-Jul-14 10:43N 37°41' E 002°20'15912.1
2018-Jul-13 21:34N 37°40' E 005°41'112.4
2018-Jul-13 21:28N 37°40' E 005°43'712.4
2018-Jul-13 20:55N 37°40' E 005°51'512.5
2018-Jul-13 20:30N 37°40' E 005°58'712.8
2018-Jul-13 19:57N 37°40' E 006°07'612.8
2018-Jul-13 19:30N 37°40' E 006°14'712.7
2018-Jul-13 18:59N 37°40' E 006°22'612.7
2018-Jul-13 18:30N 37°40' E 006°30'612.8
2018-Jul-13 18:00N 37°40' E 006°38'713.0
2018-Jul-13 17:30N 37°40' E 006°46'9312.3
2018-Jul-13 09:57N 37°39' E 008°44'8512.3
2018-Jul-13 03:02N 37°36' E 010°31'212.5
2018-Jul-13 02:54N 37°35' E 010°33'  

Dump ship's entire track history